sensor_id;sensor_type;location;lat;lon;timestamp;P1;durP1;ratioP1;P2;durP2;ratioP2
64738;SDS011;51175;51.186;0.276;2023-04-24T00:00:25;21.35;;;15.13;;
64738;SDS011;51175;51.186;0.276;2023-04-24T00:00:56;20.15;;;14.52;;
64738;SDS011;51175;51.186;0.276;2023-04-24T00:01:27;18.75;;;13.30;;
64738;SDS011;51175;51.186;0.276;2023-04-24T00:01:59;20.27;;;14.30;;
64738;SDS011;51175;51.186;0.276;2023-04-24T00:02:31;19.98;;;13.63;;
64738;SDS011;51175;51.186;0.276;2023-04-24T00:03:02;19.85;;;13.77;;
64738;SDS011;51175;51.186;0.276;2023-04-24T00:03:33;20.15;;;13.77;;
64738;SDS011;51175;51.186;0.276;2023-04-24T00:04:03;19.88;;;13.90;;
64738;SDS011;51175;51.186;0.276;2023-04-24T00:04:33;20.13;;;13.15;;
64738;SDS011;51175;51.186;0.276;2023-04-24T00:05:05;19.85;;;13.23;;
64738;SDS011;51175;51.186;0.276;2023-04-24T00:05:36;19.35;;;13.70;;
64738;SDS011;51175;51.186;0.276;2023-04-24T00:06:06;17.33;;;13.48;;
64738;SDS011;51175;51.186;0.276;2023-04-24T00:06:38;18.50;;;13.18;;
64738;SDS011;51175;51.186;0.276;2023-04-24T00:07:08;20.98;;;14.55;;
64738;SDS011;51175;51.186;0.276;2023-04-24T00:07:39;18.48;;;13.18;;
64738;SDS011;51175;51.186;0.276;2023-04-24T00:08:10;19.70;;;14.13;;
64738;SDS011;51175;51.186;0.276;2023-04-24T00:08:41;19.25;;;14.13;;
64738;SDS011;51175;51.186;0.276;2023-04-24T00:09:11;20.45;;;14.45;;
64738;SDS011;51175;51.186;0.276;2023-04-24T00:09:42;21.50;;;14.23;;
64738;SDS011;51175;51.186;0.276;2023-04-24T00:10:13;20.50;;;14.90;;
64738;SDS011;51175;51.186;0.276;2023-04-24T00:10:43;17.33;;;12.57;;
64738;SDS011;51175;51.186;0.276;2023-04-24T00:11:14;18.42;;;12.85;;
64738;SDS011;51175;51.186;0.276;2023-04-24T00:11:44;19.05;;;13.90;;
64738;SDS011;51175;51.186;0.276;2023-04-24T00:12:15;19.83;;;13.95;;
64738;SDS011;51175;51.186;0.276;2023-04-24T00:12:45;20.27;;;14.90;;
64738;SDS011;51175;51.186;0.276;2023-04-24T00:13:16;18.13;;;13.73;;
64738;SDS011;51175;51.186;0.276;2023-04-24T00:13:46;19.20;;;13.23;;
64738;SDS011;51175;51.186;0.276;2023-04-24T00:14:16;18.35;;;13.25;;
64738;SDS011;51175;51.186;0.276;2023-04-24T00:14:47;18.55;;;14.10;;
64738;SDS011;51175;51.186;0.276;2023-04-24T00:15:17;18.98;;;12.32;;
64738;SDS011;51175;51.186;0.276;2023-04-24T00:15:48;20.17;;;13.00;;
64738;SDS011;51175;51.186;0.276;2023-04-24T00:16:18;19.10;;;13.35;;
64738;SDS011;51175;51.186;0.276;2023-04-24T00:16:48;19.10;;;13.30;;
64738;SDS011;51175;51.186;0.276;2023-04-24T00:17:19;16.85;;;12.68;;
64738;SDS011;51175;51.186;0.276;2023-04-24T00:17:52;17.83;;;12.75;;
64738;SDS011;51175;51.186;0.276;2023-04-24T00:18:23;19.58;;;13.32;;
64738;SDS011;51175;51.186;0.276;2023-04-24T00:18:53;17.20;;;12.75;;
64738;SDS011;51175;51.186;0.276;2023-04-24T00:19:24;18.63;;;15.10;;
64738;SDS011;51175;51.186;0.276;2023-04-24T00:19:54;20.63;;;13.30;;
64738;SDS011;51175;51.186;0.276;2023-04-24T00:20:34;18.27;;;12.75;;
64738;SDS011;51175;51.186;0.276;2023-04-24T00:21:05;17.17;;;13.00;;
64738;SDS011;51175;51.186;0.276;2023-04-24T00:21:36;18.83;;;13.13;;
64738;SDS011;51175;51.186;0.276;2023-04-24T00:22:06;17.25;;;12.48;;
64738;SDS011;51175;51.186;0.276;2023-04-24T00:22:36;18.52;;;13.38;;
64738;SDS011;51175;51.186;0.276;2023-04-24T00:23:07;18.27;;;13.27;;
64738;SDS011;51175;51.186;0.276;2023-04-24T00:23:38;17.60;;;12.85;;
64738;SDS011;51175;51.186;0.276;2023-04-24T00:24:08;20.38;;;14.77;;
64738;SDS011;51175;51.186;0.276;2023-04-24T00:24:41;19.38;;;13.43;;
64738;SDS011;51175;51.186;0.276;2023-04-24T00:25:12;20.27;;;13.52;;
64738;SDS011;51175;51.186;0.276;2023-04-24T00:25:42;20.52;;;14.18;;
64738;SDS011;51175;51.186;0.276;2023-04-24T00:26:13;17.42;;;13.60;;
64738;SDS011;51175;51.186;0.276;2023-04-24T00:26:43;19.27;;;13.57;;
64738;SDS011;51175;51.186;0.276;2023-04-24T00:27:14;16.42;;;12.70;;
64738;SDS011;51175;51.186;0.276;2023-04-24T00:27:44;18.50;;;13.07;;
64738;SDS011;51175;51.186;0.276;2023-04-24T00:28:16;19.27;;;14.05;;
64738;SDS011;51175;51.186;0.276;2023-04-24T00:28:46;16.75;;;11.98;;
64738;SDS011;51175;51.186;0.276;2023-04-24T00:29:17;17.08;;;13.20;;
64738;SDS011;51175;51.186;0.276;2023-04-24T00:29:47;16.65;;;13.35;;
64738;SDS011;51175;51.186;0.276;2023-04-24T00:30:17;18.85;;;13.90;;
64738;SDS011;51175;51.186;0.276;2023-04-24T00:30:48;19.98;;;12.80;;
64738;SDS011;51175;51.186;0.276;2023-04-24T00:31:18;19.75;;;13.52;;
64738;SDS011;51175;51.186;0.276;2023-04-24T00:31:49;16.40;;;12.73;;
64738;SDS011;51175;51.186;0.276;2023-04-24T00:32:19;17.20;;;12.65;;
64738;SDS011;51175;51.186;0.276;2023-04-24T00:32:49;18.92;;;13.13;;
64738;SDS011;51175;51.186;0.276;2023-04-24T00:33:20;18.38;;;12.57;;
64738;SDS011;51175;51.186;0.276;2023-04-24T00:33:50;17.80;;;13.15;;
64738;SDS011;51175;51.186;0.276;2023-04-24T00:34:21;16.88;;;12.60;;
64738;SDS011;51175;51.186;0.276;2023-04-24T00:34:51;18.48;;;12.98;;
64738;SDS011;51175;51.186;0.276;2023-04-24T00:35:22;17.25;;;12.88;;
64738;SDS011;51175;51.186;0.276;2023-04-24T00:35:53;18.92;;;12.88;;
64738;SDS011;51175;51.186;0.276;2023-04-24T00:36:23;16.25;;;11.68;;
64738;SDS011;51175;51.186;0.276;2023-04-24T00:36:53;19.35;;;12.85;;
64738;SDS011;51175;51.186;0.276;2023-04-24T00:37:25;19.08;;;13.00;;
64738;SDS011;51175;51.186;0.276;2023-04-24T00:37:55;16.63;;;12.48;;
64738;SDS011;51175;51.186;0.276;2023-04-24T00:38:25;16.88;;;12.02;;
64738;SDS011;51175;51.186;0.276;2023-04-24T00:38:56;17.02;;;12.65;;
64738;SDS011;51175;51.186;0.276;2023-04-24T00:39:28;17.40;;;12.60;;
64738;SDS011;51175;51.186;0.276;2023-04-24T00:39:58;19.25;;;13.40;;
64738;SDS011;51175;51.186;0.276;2023-04-24T00:40:29;19.15;;;14.02;;
64738;SDS011;51175;51.186;0.276;2023-04-24T00:41:00;17.60;;;12.20;;
64738;SDS011;51175;51.186;0.276;2023-04-24T00:41:30;19.60;;;13.80;;
64738;SDS011;51175;51.186;0.276;2023-04-24T00:42:00;17.52;;;12.85;;
64738;SDS011;51175;51.186;0.276;2023-04-24T00:42:31;17.73;;;13.13;;
64738;SDS011;51175;51.186;0.276;2023-04-24T00:43:03;16.58;;;12.93;;
64738;SDS011;51175;51.186;0.276;2023-04-24T00:43:33;16.85;;;13.00;;
64738;SDS011;51175;51.186;0.276;2023-04-24T00:44:04;18.63;;;12.98;;
64738;SDS011;51175;51.186;0.276;2023-04-24T00:44:34;17.85;;;12.45;;
64738;SDS011;51175;51.186;0.276;2023-04-24T00:45:05;19.05;;;13.27;;
64738;SDS011;51175;51.186;0.276;2023-04-24T00:45:36;18.52;;;12.38;;
64738;SDS011;51175;51.186;0.276;2023-04-24T00:46:07;16.60;;;11.65;;
64738;SDS011;51175;51.186;0.276;2023-04-24T00:46:37;13.88;;;12.30;;
64738;SDS011;51175;51.186;0.276;2023-04-24T00:47:08;18.17;;;13.68;;
64738;SDS011;51175;51.186;0.276;2023-04-24T00:47:39;16.70;;;13.35;;
64738;SDS011;51175;51.186;0.276;2023-04-24T00:48:11;16.63;;;13.18;;
64738;SDS011;51175;51.186;0.276;2023-04-24T00:48:42;17.17;;;13.30;;
64738;SDS011;51175;51.186;0.276;2023-04-24T00:49:13;17.95;;;12.48;;
64738;SDS011;51175;51.186;0.276;2023-04-24T00:49:44;17.25;;;13.32;;
64738;SDS011;51175;51.186;0.276;2023-04-24T00:50:14;18.95;;;13.05;;
64738;SDS011;51175;51.186;0.276;2023-04-24T00:50:45;17.25;;;12.38;;
64738;SDS011;51175;51.186;0.276;2023-04-24T00:51:15;19.45;;;13.32;;
64738;SDS011;51175;51.186;0.276;2023-04-24T00:51:46;20.00;;;12.73;;
64738;SDS011;51175;51.186;0.276;2023-04-24T00:52:16;19.00;;;12.98;;
64738;SDS011;51175;51.186;0.276;2023-04-24T00:52:47;16.33;;;11.98;;
64738;SDS011;51175;51.186;0.276;2023-04-24T00:53:18;16.27;;;12.15;;
64738;SDS011;51175;51.186;0.276;2023-04-24T00:53:48;17.38;;;13.23;;
64738;SDS011;51175;51.186;0.276;2023-04-24T00:54:19;18.33;;;12.43;;
64738;SDS011;51175;51.186;0.276;2023-04-24T00:54:50;16.00;;;11.90;;
64738;SDS011;51175;51.186;0.276;2023-04-24T00:55:20;15.82;;;12.18;;
64738;SDS011;51175;51.186;0.276;2023-04-24T00:55:51;17.63;;;13.18;;
64738;SDS011;51175;51.186;0.276;2023-04-24T00:56:21;16.98;;;11.88;;
64738;SDS011;51175;51.186;0.276;2023-04-24T00:56:53;16.85;;;12.68;;
64738;SDS011;51175;51.186;0.276;2023-04-24T00:57:23;15.95;;;11.68;;
64738;SDS011;51175;51.186;0.276;2023-04-24T00:57:54;14.68;;;11.30;;
64738;SDS011;51175;51.186;0.276;2023-04-24T00:58:25;15.93;;;11.90;;
64738;SDS011;51175;51.186;0.276;2023-04-24T00:58:55;16.63;;;12.18;;
64738;SDS011;51175;51.186;0.276;2023-04-24T00:59:26;15.50;;;11.73;;
64738;SDS011;51175;51.186;0.276;2023-04-24T00:59:56;16.40;;;13.02;;
64738;SDS011;51175;51.186;0.276;2023-04-24T01:00:27;16.55;;;12.02;;
64738;SDS011;51175;51.186;0.276;2023-04-24T01:00:58;16.35;;;12.57;;
64738;SDS011;51175;51.186;0.276;2023-04-24T01:01:30;18.02;;;12.85;;
64738;SDS011;51175;51.186;0.276;2023-04-24T01:02:02;15.95;;;12.07;;
64738;SDS011;51175;51.186;0.276;2023-04-24T01:02:33;17.67;;;12.57;;
64738;SDS011;51175;51.186;0.276;2023-04-24T01:03:04;15.35;;;11.40;;
64738;SDS011;51175;51.186;0.276;2023-04-24T01:03:35;14.60;;;11.73;;
64738;SDS011;51175;51.186;0.276;2023-04-24T01:04:07;18.23;;;13.68;;
64738;SDS011;51175;51.186;0.276;2023-04-24T01:04:38;16.08;;;11.65;;
64738;SDS011;51175;51.186;0.276;2023-04-24T01:05:10;16.38;;;11.82;;
64738;SDS011;51175;51.186;0.276;2023-04-24T01:05:42;14.93;;;11.95;;
64738;SDS011;51175;51.186;0.276;2023-04-24T01:06:12;15.18;;;11.63;;
64738;SDS011;51175;51.186;0.276;2023-04-24T01:06:44;17.20;;;12.27;;
64738;SDS011;51175;51.186;0.276;2023-04-24T01:07:15;15.13;;;11.88;;
64738;SDS011;51175;51.186;0.276;2023-04-24T01:07:47;15.48;;;12.70;;
64738;SDS011;51175;51.186;0.276;2023-04-24T01:08:18;14.55;;;11.95;;
64738;SDS011;51175;51.186;0.276;2023-04-24T01:08:50;15.63;;;11.70;;
64738;SDS011;51175;51.186;0.276;2023-04-24T01:09:20;17.52;;;12.20;;
64738;SDS011;51175;51.186;0.276;2023-04-24T01:09:53;15.73;;;11.45;;
64738;SDS011;51175;51.186;0.276;2023-04-24T01:10:23;19.42;;;13.60;;
64738;SDS011;51175;51.186;0.276;2023-04-24T01:10:55;15.95;;;12.88;;
64738;SDS011;51175;51.186;0.276;2023-04-24T01:11:27;15.48;;;11.10;;
64738;SDS011;51175;51.186;0.276;2023-04-24T01:11:58;15.57;;;10.98;;
64738;SDS011;51175;51.186;0.276;2023-04-24T01:12:30;16.63;;;11.93;;
64738;SDS011;51175;51.186;0.276;2023-04-24T01:13:01;16.83;;;12.40;;
64738;SDS011;51175;51.186;0.276;2023-04-24T01:13:32;16.65;;;12.55;;
64738;SDS011;51175;51.186;0.276;2023-04-24T01:14:03;16.00;;;12.25;;
64738;SDS011;51175;51.186;0.276;2023-04-24T01:14:33;17.38;;;12.98;;
64738;SDS011;51175;51.186;0.276;2023-04-24T01:15:04;15.68;;;12.70;;
64738;SDS011;51175;51.186;0.276;2023-04-24T01:15:36;15.45;;;11.70;;
64738;SDS011;51175;51.186;0.276;2023-04-24T01:16:06;14.35;;;11.88;;
64738;SDS011;51175;51.186;0.276;2023-04-24T01:16:37;16.10;;;12.43;;
64738;SDS011;51175;51.186;0.276;2023-04-24T01:17:08;16.05;;;12.23;;
64738;SDS011;51175;51.186;0.276;2023-04-24T01:17:39;14.98;;;11.85;;
64738;SDS011;51175;51.186;0.276;2023-04-24T01:18:09;15.80;;;11.77;;
64738;SDS011;51175;51.186;0.276;2023-04-24T01:18:40;14.90;;;11.43;;
64738;SDS011;51175;51.186;0.276;2023-04-24T01:19:11;15.60;;;12.02;;
64738;SDS011;51175;51.186;0.276;2023-04-24T01:19:42;16.08;;;11.52;;
64738;SDS011;51175;51.186;0.276;2023-04-24T01:20:14;12.48;;;10.30;;
64738;SDS011;51175;51.186;0.276;2023-04-24T01:20:45;14.05;;;11.13;;
64738;SDS011;51175;51.186;0.276;2023-04-24T01:21:16;15.90;;;12.30;;
64738;SDS011;51175;51.186;0.276;2023-04-24T01:21:49;15.93;;;11.70;;
64738;SDS011;51175;51.186;0.276;2023-04-24T01:22:22;14.82;;;11.93;;
64738;SDS011;51175;51.186;0.276;2023-04-24T01:22:54;16.70;;;11.45;;
64738;SDS011;51175;51.186;0.276;2023-04-24T01:23:26;17.35;;;12.25;;
64738;SDS011;51175;51.186;0.276;2023-04-24T01:23:56;14.35;;;12.00;;
64738;SDS011;51175;51.186;0.276;2023-04-24T01:24:27;16.65;;;11.38;;
64738;SDS011;51175;51.186;0.276;2023-04-24T01:24:59;14.88;;;11.05;;
64738;SDS011;51175;51.186;0.276;2023-04-24T01:25:29;14.38;;;11.45;;
64738;SDS011;51175;51.186;0.276;2023-04-24T01:26:00;17.10;;;12.32;;
64738;SDS011;51175;51.186;0.276;2023-04-24T01:26:31;15.60;;;11.75;;
64738;SDS011;51175;51.186;0.276;2023-04-24T01:27:01;16.17;;;11.30;;
64738;SDS011;51175;51.186;0.276;2023-04-24T01:27:32;15.80;;;11.30;;
64738;SDS011;51175;51.186;0.276;2023-04-24T01:28:03;18.42;;;11.43;;
64738;SDS011;51175;51.186;0.276;2023-04-24T01:28:33;14.48;;;11.18;;
64738;SDS011;51175;51.186;0.276;2023-04-24T01:29:04;14.50;;;11.93;;
64738;SDS011;51175;51.186;0.276;2023-04-24T01:29:34;13.50;;;10.88;;
64738;SDS011;51175;51.186;0.276;2023-04-24T01:30:06;14.95;;;11.20;;
64738;SDS011;51175;51.186;0.276;2023-04-24T01:30:37;15.05;;;12.02;;
64738;SDS011;51175;51.186;0.276;2023-04-24T01:31:08;13.88;;;11.98;;
64738;SDS011;51175;51.186;0.276;2023-04-24T01:31:39;13.00;;;10.13;;
64738;SDS011;51175;51.186;0.276;2023-04-24T01:32:10;14.43;;;11.35;;
64738;SDS011;51175;51.186;0.276;2023-04-24T01:32:40;14.82;;;10.60;;
64738;SDS011;51175;51.186;0.276;2023-04-24T01:33:14;16.17;;;11.85;;
64738;SDS011;51175;51.186;0.276;2023-04-24T01:33:45;15.52;;;11.70;;
64738;SDS011;51175;51.186;0.276;2023-04-24T01:34:16;14.48;;;10.75;;
64738;SDS011;51175;51.186;0.276;2023-04-24T01:34:47;15.05;;;11.80;;
64738;SDS011;51175;51.186;0.276;2023-04-24T01:35:18;14.55;;;11.55;;
64738;SDS011;51175;51.186;0.276;2023-04-24T01:35:51;14.25;;;11.48;;
64738;SDS011;51175;51.186;0.276;2023-04-24T01:36:21;14.93;;;11.05;;
64738;SDS011;51175;51.186;0.276;2023-04-24T01:36:53;14.30;;;11.20;;
64738;SDS011;51175;51.186;0.276;2023-04-24T01:37:24;14.35;;;11.02;;
64738;SDS011;51175;51.186;0.276;2023-04-24T01:37:54;14.00;;;11.15;;
64738;SDS011;51175;51.186;0.276;2023-04-24T01:38:25;14.30;;;10.75;;
64738;SDS011;51175;51.186;0.276;2023-04-24T01:38:55;15.40;;;11.05;;
64738;SDS011;51175;51.186;0.276;2023-04-24T01:39:26;14.68;;;10.68;;
64738;SDS011;51175;51.186;0.276;2023-04-24T01:39:58;14.63;;;11.63;;
64738;SDS011;51175;51.186;0.276;2023-04-24T01:40:29;13.65;;;10.93;;
64738;SDS011;51175;51.186;0.276;2023-04-24T01:41:00;15.25;;;11.00;;
64738;SDS011;51175;51.186;0.276;2023-04-24T01:41:30;15.80;;;10.75;;
64738;SDS011;51175;51.186;0.276;2023-04-24T01:42:02;14.55;;;10.50;;
64738;SDS011;51175;51.186;0.276;2023-04-24T01:42:32;12.88;;;10.15;;
64738;SDS011;51175;51.186;0.276;2023-04-24T01:43:04;13.70;;;10.48;;
64738;SDS011;51175;51.186;0.276;2023-04-24T01:43:35;15.52;;;11.68;;
64738;SDS011;51175;51.186;0.276;2023-04-24T01:44:05;15.02;;;11.27;;
64738;SDS011;51175;51.186;0.276;2023-04-24T01:44:36;14.35;;;10.90;;
64738;SDS011;51175;51.186;0.276;2023-04-24T01:45:06;14.60;;;10.43;;
64738;SDS011;51175;51.186;0.276;2023-04-24T01:45:40;14.63;;;11.32;;
64738;SDS011;51175;51.186;0.276;2023-04-24T01:46:11;14.15;;;11.02;;
64738;SDS011;51175;51.186;0.276;2023-04-24T01:46:41;14.57;;;11.05;;
64738;SDS011;51175;51.186;0.276;2023-04-24T01:47:12;14.32;;;11.13;;
64738;SDS011;51175;51.186;0.276;2023-04-24T01:47:43;13.80;;;11.65;;
64738;SDS011;51175;51.186;0.276;2023-04-24T01:48:15;14.20;;;11.05;;
64738;SDS011;51175;51.186;0.276;2023-04-24T01:48:45;13.73;;;10.23;;
64738;SDS011;51175;51.186;0.276;2023-04-24T01:49:15;12.98;;;10.10;;
64738;SDS011;51175;51.186;0.276;2023-04-24T01:49:46;15.13;;;11.63;;
64738;SDS011;51175;51.186;0.276;2023-04-24T01:50:18;12.88;;;10.55;;
64738;SDS011;51175;51.186;0.276;2023-04-24T01:50:48;13.27;;;11.05;;
64738;SDS011;51175;51.186;0.276;2023-04-24T01:51:19;12.93;;;10.07;;
64738;SDS011;51175;51.186;0.276;2023-04-24T01:51:49;13.75;;;10.90;;
64738;SDS011;51175;51.186;0.276;2023-04-24T01:52:20;14.02;;;11.05;;
64738;SDS011;51175;51.186;0.276;2023-04-24T01:52:50;13.60;;;10.60;;
64738;SDS011;51175;51.186;0.276;2023-04-24T01:53:20;14.07;;;10.98;;
64738;SDS011;51175;51.186;0.276;2023-04-24T01:53:51;13.93;;;10.45;;
64738;SDS011;51175;51.186;0.276;2023-04-24T01:54:21;12.63;;;10.25;;
64738;SDS011;51175;51.186;0.276;2023-04-24T01:54:51;13.35;;;10.38;;
64738;SDS011;51175;51.186;0.276;2023-04-24T01:55:22;13.45;;;10.50;;
64738;SDS011;51175;51.186;0.276;2023-04-24T01:55:52;13.25;;;10.40;;
64738;SDS011;51175;51.186;0.276;2023-04-24T01:56:23;13.93;;;10.93;;
64738;SDS011;51175;51.186;0.276;2023-04-24T01:56:55;12.65;;;10.43;;
64738;SDS011;51175;51.186;0.276;2023-04-24T01:57:25;12.65;;;10.52;;
64738;SDS011;51175;51.186;0.276;2023-04-24T01:57:56;11.75;;;9.90;;
64738;SDS011;51175;51.186;0.276;2023-04-24T01:58:28;12.50;;;10.20;;
64738;SDS011;51175;51.186;0.276;2023-04-24T01:58:59;14.70;;;11.07;;
64738;SDS011;51175;51.186;0.276;2023-04-24T01:59:30;10.88;;;9.40;;
64738;SDS011;51175;51.186;0.276;2023-04-24T02:00:03;15.73;;;11.23;;
64738;SDS011;51175;51.186;0.276;2023-04-24T02:00:34;14.95;;;11.20;;
64738;SDS011;51175;51.186;0.276;2023-04-24T02:01:06;13.02;;;10.15;;
64738;SDS011;51175;51.186;0.276;2023-04-24T02:01:37;14.20;;;11.13;;
64738;SDS011;51175;51.186;0.276;2023-04-24T02:02:08;14.05;;;10.85;;
64738;SDS011;51175;51.186;0.276;2023-04-24T02:02:41;12.60;;;9.95;;
64738;SDS011;51175;51.186;0.276;2023-04-24T02:03:12;12.95;;;10.65;;
64738;SDS011;51175;51.186;0.276;2023-04-24T02:03:42;12.13;;;9.20;;
64738;SDS011;51175;51.186;0.276;2023-04-24T02:04:13;15.98;;;11.07;;
64738;SDS011;51175;51.186;0.276;2023-04-24T02:04:44;13.50;;;10.80;;
64738;SDS011;51175;51.186;0.276;2023-04-24T02:05:15;13.35;;;10.45;;
64738;SDS011;51175;51.186;0.276;2023-04-24T02:05:45;14.43;;;10.75;;
64738;SDS011;51175;51.186;0.276;2023-04-24T02:06:15;12.00;;;9.93;;
64738;SDS011;51175;51.186;0.276;2023-04-24T02:06:46;13.65;;;10.35;;
64738;SDS011;51175;51.186;0.276;2023-04-24T02:07:16;13.15;;;9.32;;
64738;SDS011;51175;51.186;0.276;2023-04-24T02:07:46;13.10;;;10.52;;
64738;SDS011;51175;51.186;0.276;2023-04-24T02:08:17;12.38;;;9.70;;
64738;SDS011;51175;51.186;0.276;2023-04-24T02:08:47;12.50;;;10.20;;
64738;SDS011;51175;51.186;0.276;2023-04-24T02:09:18;12.70;;;10.43;;
64738;SDS011;51175;51.186;0.276;2023-04-24T02:09:48;12.80;;;10.63;;
64738;SDS011;51175;51.186;0.276;2023-04-24T02:10:19;11.55;;;9.30;;
64738;SDS011;51175;51.186;0.276;2023-04-24T02:10:49;13.52;;;9.63;;
64738;SDS011;51175;51.186;0.276;2023-04-24T02:11:19;12.48;;;10.35;;
64738;SDS011;51175;51.186;0.276;2023-04-24T02:11:50;12.63;;;10.02;;
64738;SDS011;51175;51.186;0.276;2023-04-24T02:12:20;12.27;;;9.73;;
64738;SDS011;51175;51.186;0.276;2023-04-24T02:12:51;13.52;;;10.20;;
64738;SDS011;51175;51.186;0.276;2023-04-24T02:13:21;13.52;;;10.02;;
64738;SDS011;51175;51.186;0.276;2023-04-24T02:13:52;12.70;;;10.40;;
64738;SDS011;51175;51.186;0.276;2023-04-24T02:14:22;14.50;;;11.02;;
64738;SDS011;51175;51.186;0.276;2023-04-24T02:14:53;15.05;;;9.48;;
64738;SDS011;51175;51.186;0.276;2023-04-24T02:15:23;14.25;;;10.98;;
64738;SDS011;51175;51.186;0.276;2023-04-24T02:15:53;14.02;;;10.43;;
64738;SDS011;51175;51.186;0.276;2023-04-24T02:16:24;14.38;;;10.20;;
64738;SDS011;51175;51.186;0.276;2023-04-24T02:16:54;11.90;;;9.35;;
64738;SDS011;51175;51.186;0.276;2023-04-24T02:17:25;12.30;;;10.25;;
64738;SDS011;51175;51.186;0.276;2023-04-24T02:17:55;12.27;;;9.75;;
64738;SDS011;51175;51.186;0.276;2023-04-24T02:18:26;13.52;;;10.45;;
64738;SDS011;51175;51.186;0.276;2023-04-24T02:18:56;12.18;;;10.02;;
64738;SDS011;51175;51.186;0.276;2023-04-24T02:19:27;14.20;;;10.30;;
64738;SDS011;51175;51.186;0.276;2023-04-24T02:19:57;11.57;;;9.82;;
64738;SDS011;51175;51.186;0.276;2023-04-24T02:20:27;11.98;;;10.05;;
64738;SDS011;51175;51.186;0.276;2023-04-24T02:20:58;12.63;;;9.95;;
64738;SDS011;51175;51.186;0.276;2023-04-24T02:21:28;12.75;;;10.25;;
64738;SDS011;51175;51.186;0.276;2023-04-24T02:22:01;12.30;;;10.15;;
64738;SDS011;51175;51.186;0.276;2023-04-24T02:22:31;12.75;;;9.75;;
64738;SDS011;51175;51.186;0.276;2023-04-24T02:23:01;11.75;;;10.43;;
64738;SDS011;51175;51.186;0.276;2023-04-24T02:23:32;11.73;;;9.07;;
64738;SDS011;51175;51.186;0.276;2023-04-24T02:24:02;12.45;;;9.43;;
64738;SDS011;51175;51.186;0.276;2023-04-24T02:24:33;13.20;;;10.18;;
64738;SDS011;51175;51.186;0.276;2023-04-24T02:25:03;12.70;;;10.48;;
64738;SDS011;51175;51.186;0.276;2023-04-24T02:25:35;12.90;;;10.35;;
64738;SDS011;51175;51.186;0.276;2023-04-24T02:26:05;12.65;;;10.30;;
64738;SDS011;51175;51.186;0.276;2023-04-24T02:26:36;11.43;;;10.23;;
64738;SDS011;51175;51.186;0.276;2023-04-24T02:27:06;12.75;;;9.60;;
64738;SDS011;51175;51.186;0.276;2023-04-24T02:27:36;11.95;;;10.00;;
64738;SDS011;51175;51.186;0.276;2023-04-24T02:28:07;12.05;;;9.27;;
64738;SDS011;51175;51.186;0.276;2023-04-24T02:28:37;12.20;;;9.50;;
64738;SDS011;51175;51.186;0.276;2023-04-24T02:29:07;12.45;;;10.13;;
64738;SDS011;51175;51.186;0.276;2023-04-24T02:29:38;11.23;;;9.10;;
64738;SDS011;51175;51.186;0.276;2023-04-24T02:30:08;11.95;;;9.23;;
64738;SDS011;51175;51.186;0.276;2023-04-24T02:30:40;13.55;;;9.45;;
64738;SDS011;51175;51.186;0.276;2023-04-24T02:31:10;12.30;;;9.00;;
64738;SDS011;51175;51.186;0.276;2023-04-24T02:31:41;10.45;;;8.73;;
64738;SDS011;51175;51.186;0.276;2023-04-24T02:32:11;11.73;;;9.43;;
64738;SDS011;51175;51.186;0.276;2023-04-24T02:32:41;12.48;;;9.57;;
64738;SDS011;51175;51.186;0.276;2023-04-24T02:33:12;11.98;;;9.43;;
64738;SDS011;51175;51.186;0.276;2023-04-24T02:33:42;12.38;;;8.80;;
64738;SDS011;51175;51.186;0.276;2023-04-24T02:34:13;10.93;;;9.23;;
64738;SDS011;51175;51.186;0.276;2023-04-24T02:34:43;13.38;;;9.50;;
64738;SDS011;51175;51.186;0.276;2023-04-24T02:35:13;10.68;;;8.65;;
64738;SDS011;51175;51.186;0.276;2023-04-24T02:35:44;11.35;;;9.77;;
64738;SDS011;51175;51.186;0.276;2023-04-24T02:36:14;11.63;;;9.38;;
64738;SDS011;51175;51.186;0.276;2023-04-24T02:36:44;12.05;;;9.63;;
64738;SDS011;51175;51.186;0.276;2023-04-24T02:37:15;10.43;;;9.07;;
64738;SDS011;51175;51.186;0.276;2023-04-24T02:37:45;11.82;;;9.77;;
64738;SDS011;51175;51.186;0.276;2023-04-24T02:38:16;11.30;;;9.27;;
64738;SDS011;51175;51.186;0.276;2023-04-24T02:38:46;11.88;;;9.48;;
64738;SDS011;51175;51.186;0.276;2023-04-24T02:39:16;12.18;;;9.07;;
64738;SDS011;51175;51.186;0.276;2023-04-24T02:39:47;12.13;;;9.55;;
64738;SDS011;51175;51.186;0.276;2023-04-24T02:40:17;11.85;;;9.82;;
64738;SDS011;51175;51.186;0.276;2023-04-24T02:40:48;13.00;;;9.55;;
64738;SDS011;51175;51.186;0.276;2023-04-24T02:41:18;10.80;;;8.23;;
64738;SDS011;51175;51.186;0.276;2023-04-24T02:41:49;11.32;;;8.68;;
64738;SDS011;51175;51.186;0.276;2023-04-24T02:42:19;12.05;;;9.75;;
64738;SDS011;51175;51.186;0.276;2023-04-24T02:42:50;11.68;;;9.73;;
64738;SDS011;51175;51.186;0.276;2023-04-24T02:43:21;10.65;;;8.38;;
64738;SDS011;51175;51.186;0.276;2023-04-24T02:43:51;11.60;;;9.60;;
64738;SDS011;51175;51.186;0.276;2023-04-24T02:44:21;12.15;;;8.93;;
64738;SDS011;51175;51.186;0.276;2023-04-24T02:44:52;13.05;;;9.90;;
64738;SDS011;51175;51.186;0.276;2023-04-24T02:45:23;12.13;;;10.25;;
64738;SDS011;51175;51.186;0.276;2023-04-24T02:45:53;11.63;;;9.13;;
64738;SDS011;51175;51.186;0.276;2023-04-24T02:46:24;12.20;;;9.35;;
64738;SDS011;51175;51.186;0.276;2023-04-24T02:46:54;13.25;;;10.05;;
64738;SDS011;51175;51.186;0.276;2023-04-24T02:47:24;11.23;;;9.50;;
64738;SDS011;51175;51.186;0.276;2023-04-24T02:47:55;11.63;;;9.43;;
64738;SDS011;51175;51.186;0.276;2023-04-24T02:48:25;10.77;;;8.82;;
64738;SDS011;51175;51.186;0.276;2023-04-24T02:48:55;11.23;;;9.07;;
64738;SDS011;51175;51.186;0.276;2023-04-24T02:49:26;9.77;;;8.55;;
64738;SDS011;51175;51.186;0.276;2023-04-24T02:49:57;9.55;;;8.55;;
64738;SDS011;51175;51.186;0.276;2023-04-24T02:50:27;11.68;;;9.10;;
64738;SDS011;51175;51.186;0.276;2023-04-24T02:50:57;10.50;;;8.85;;
64738;SDS011;51175;51.186;0.276;2023-04-24T02:51:28;11.43;;;9.43;;
64738;SDS011;51175;51.186;0.276;2023-04-24T02:51:59;11.93;;;9.20;;
64738;SDS011;51175;51.186;0.276;2023-04-24T02:52:29;12.70;;;9.93;;
64738;SDS011;51175;51.186;0.276;2023-04-24T02:53:00;10.82;;;8.98;;
64738;SDS011;51175;51.186;0.276;2023-04-24T02:53:30;13.35;;;9.43;;
64738;SDS011;51175;51.186;0.276;2023-04-24T02:54:01;12.07;;;9.38;;
64738;SDS011;51175;51.186;0.276;2023-04-24T02:54:31;10.68;;;9.55;;
64738;SDS011;51175;51.186;0.276;2023-04-24T02:55:01;12.00;;;8.80;;
64738;SDS011;51175;51.186;0.276;2023-04-24T02:55:32;11.57;;;9.45;;
64738;SDS011;51175;51.186;0.276;2023-04-24T02:56:02;10.55;;;8.82;;
64738;SDS011;51175;51.186;0.276;2023-04-24T02:56:32;12.18;;;9.38;;
64738;SDS011;51175;51.186;0.276;2023-04-24T02:57:03;10.98;;;8.98;;
64738;SDS011;51175;51.186;0.276;2023-04-24T02:57:33;13.25;;;9.93;;
64738;SDS011;51175;51.186;0.276;2023-04-24T02:58:04;11.50;;;9.18;;
64738;SDS011;51175;51.186;0.276;2023-04-24T02:58:35;12.35;;;9.88;;
64738;SDS011;51175;51.186;0.276;2023-04-24T02:59:06;11.98;;;9.23;;
64738;SDS011;51175;51.186;0.276;2023-04-24T02:59:36;10.10;;;8.52;;
64738;SDS011;51175;51.186;0.276;2023-04-24T03:00:07;11.43;;;9.48;;
64738;SDS011;51175;51.186;0.276;2023-04-24T03:00:39;11.32;;;8.80;;